Bahawalpur Weather



Bahawalpur's Current Weather

Temprature 9.56o clear sky

clear sky

Rain: 0 %

Min Temprature9.56o
Max Temprature9.56o
Humidity47
Wind Speed3.83 m/h
Sun Rise07:08:02
Sun Set17:38:51
Current Time: 18-Jan-2021 05:57:25
Lat/Lon: 29.4, 71.6833




Bahawalpur's Geo Location



Bahawalpur's Weather Forecast

Time Overall Temp Min Temp Max Temp Humidity Wind Speed Rain
18-Jan-2021 (Mon)
08:00:00 clear sky 10.050 10.050 10.050 46 4.08 m/h 0 %
11:00:00 clear sky 17.700 17.700 19.810 30 5.22 m/h 0 %
14:00:00 clear sky 23.470 23.470 24.390 19 5.57 m/h 0 %
17:00:00 clear sky 21.990 21.990 22.090 20 4.1 m/h 0 %
20:00:00 clear sky 14.930 14.930 14.930 33 3.69 m/h 0 %
23:00:00 clear sky 12.500 12.500 12.500 39 3.75 m/h 0 %
19-Jan-2021 (Tue)
02:00:00 clear sky 11.280 11.280 11.280 43 3.47 m/h 0 %
05:00:00 clear sky 10.210 10.210 10.210 47 2.74 m/h 0 %
08:00:00 clear sky 11.220 11.220 11.220 44 2.44 m/h 0 %
11:00:00 clear sky 20.160 20.160 20.160 24 1.5 m/h 0 %
14:00:00 clear sky 24.430 24.430 24.430 18 0.96 m/h 0 %
17:00:00 clear sky 21.670 21.670 21.670 21 0.2 m/h 0 %
20:00:00 clear sky 15.550 15.550 15.550 30 0.73 m/h 0 %
23:00:00 clear sky 13.420 13.420 13.420 35 1.18 m/h 0 %
20-Jan-2021 (Wed)
02:00:00 clear sky 12.340 12.340 12.340 37 1.58 m/h 0 %
05:00:00 clear sky 11.630 11.630 11.630 39 1.65 m/h 0 %
08:00:00 clear sky 13.530 13.530 13.530 35 1.66 m/h 0 %
11:00:00 clear sky 22.400 22.400 22.400 20 0.48 m/h 0 %
14:00:00 clear sky 26.200 26.200 26.200 15 0.98 m/h 0 %
17:00:00 clear sky 23.400 23.400 23.400 18 0.25 m/h 0 %
20:00:00 clear sky 16.520 16.520 16.520 28 1.12 m/h 0 %
23:00:00 clear sky 14.600 14.600 14.600 32 0.55 m/h 0 %
21-Jan-2021 (Thu)
02:00:00 clear sky 13.160 13.160 13.160 35 0.25 m/h 0 %
05:00:00 clear sky 13.250 13.250 13.250 35 1.44 m/h 0 %
08:00:00 clear sky 15.940 15.940 15.940 29 2.03 m/h 0 %
11:00:00 clear sky 25.040 25.040 25.040 17 3.82 m/h 0 %
14:00:00 clear sky 28.630 28.630 28.630 14 4.94 m/h 0 %
17:00:00 clear sky 26.210 26.210 26.210 16 3.71 m/h 0 %
20:00:00 clear sky 20.740 20.740 20.740 22 3.54 m/h 0 %
23:00:00 clear sky 18.520 18.520 18.520 25 2.93 m/h 0 %
22-Jan-2021 (Fri)
02:00:00 clear sky 18.030 18.030 18.030 26 3.51 m/h 0 %
05:00:00 clear sky 15.000 15.000 15.000 31 1.74 m/h 0 %
08:00:00 clear sky 16.310 16.310 16.310 29 1.36 m/h 0 %
11:00:00 clear sky 24.060 24.060 24.060 18 0.65 m/h 0 %
14:00:00 clear sky 27.820 27.820 27.820 16 0.87 m/h 0 %
17:00:00 clear sky 25.750 25.750 25.750 21 0.41 m/h 0 %
20:00:00 clear sky 18.610 18.610 18.610 28 1.82 m/h 0 %
23:00:00 few clouds 17.140 17.140 17.140 30 2.12 m/h 0 %
23-Jan-2021 (Sat)
02:00:00 scattered clouds 15.650 15.650 15.650 32 4.33 m/h 0 %
05:00:00 scattered clouds 12.980 12.980 12.980 38 4.41 m/h 0 %


Bahawalpur's Tourist Spots

Historical Places in Bahawalpur

Famous Cities (60)